ワガドゥグー の空港の天気 - METARとTAF

ワガドゥグー空港 ( DFFD / OUA ) - ブルキナファソ ワガドゥグー
飛行場実況気象(Metar)
観測時間11/12 01:00 GMT (11/12 01:00 UTC)
風向・風速北 3m/s
視程10km以上
天気現象
なし
気温25℃
湿度41%
気圧1009hPa
METARDFFD 120100Z 36005KT CAVOK 25/11 Q1009 NOSIG
過去の天気等 Google飛行場航空写真 Wunderground天気予報

過去48時間のMETAR

飛行場予報(TAF)
発表時間: 11/11 23:00 GMT (11/11 23:00 UTC)
予報対象時間: 12日0時 GMT ~ 13日6時 GMT
風向・風速不定 4m/s
視程8000m
なし
12日6時 GMT ~ 12日10時 GMT に一時的に
視程4000m
天気現象煙霧
12日18時 GMT ~ 12日21時 GMT に一時的に
視程3500m
天気現象煙霧
TAF DFFD 112300Z 1200/1306 VRB08KT 8000 NSC
TEMPO 1206/1210 4000 HZ
TEMPO 1218/1221 3500 HZ